Time;durP1;ratioP1;P1;durP2;ratioP2;P2;SDS_P1;SDS_P2;PMS_P1;PMS_P2;Temp;Humidity;BMP_temperature;BMP_pressure;BME280_temperature;BME280_humidity;BME280_pressure;Samples;Min_cycle;Max_cycle;Signal;HPM_P1;HPM_P2
2023/11/26 00:01:43;;;;;;;1.55;1.02;;;3.40;99.90;;;;;;5029831;28;20370;-61
2023/11/26 00:04:09;;;;;;;8.20;1.58;;;3.40;99.90;;;;;;5039123;28;20115;-61
2023/11/26 00:06:34;;;;;;;6.47;1.95;;;3.40;99.90;;;;;;5044483;28;20079;-61
2023/11/26 00:09:00;;;;;;;10.50;1.50;;;3.30;99.90;;;;;;5039406;28;20075;-61
2023/11/26 00:11:26;;;;;;;2.55;0.98;;;3.30;99.90;;;;;;5005401;28;20492;-61
2023/11/26 00:13:52;;;;;;;4.00;1.25;;;3.30;99.90;;;;;;5007731;28;20053;-61
2023/11/26 00:16:19;;;;;;;2.92;1.38;;;3.20;99.90;;;;;;5031724;28;20402;-61
2023/11/26 00:18:45;;;;;;;4.13;1.40;;;3.20;99.90;;;;;;5033454;28;20103;-61
2023/11/26 00:21:11;;;;;;;3.33;1.33;;;3.30;99.90;;;;;;5029114;28;20045;-61
2023/11/26 00:23:37;;;;;;;3.28;1.10;;;3.20;99.90;;;;;;5023510;28;20042;-61
2023/11/26 00:26:03;;;;;;;10.13;1.45;;;3.20;99.90;;;;;;5008503;28;20448;-61
2023/11/26 00:28:28;;;;;;;2.63;1.02;;;3.20;99.90;;;;;;5028381;28;20085;-61
2023/11/26 00:30:55;;;;;;;5.13;1.60;;;3.20;99.90;;;;;;5023932;28;20071;-61
2023/11/26 00:33:21;;;;;;;5.40;1.40;;;3.20;99.90;;;;;;5027557;28;20048;-61
2023/11/26 00:35:47;;;;;;;2.78;1.23;;;3.20;99.90;;;;;;5026470;28;20041;-61
2023/11/26 00:38:12;;;;;;;2.13;1.15;;;3.20;99.90;;;;;;5014230;28;20045;-61
2023/11/26 00:40:38;;;;;;;3.58;1.60;;;3.10;99.90;;;;;;5017941;28;20045;-61
2023/11/26 00:43:04;;;;;;;4.32;1.15;;;3.10;99.90;;;;;;5027393;28;20034;-61
2023/11/26 00:45:30;;;;;;;2.13;1.15;;;3.10;99.90;;;;;;5028393;28;20048;-61
2023/11/26 00:47:57;;;;;;;2.95;1.23;;;3.20;99.90;;;;;;5026154;28;20396;-61
2023/11/26 00:50:23;;;;;;;8.88;1.85;;;3.10;99.90;;;;;;5021397;28;20395;-61
2023/11/26 00:52:49;;;;;;;3.80;1.50;;;3.10;99.90;;;;;;5025943;28;20053;-61
2023/11/26 00:55:15;;;;;;;1.83;1.10;;;3.00;99.90;;;;;;5010112;28;20064;-61
2023/11/26 00:57:41;;;;;;;5.53;0.93;;;3.10;99.90;;;;;;5026911;28;20049;-61
2023/11/26 01:00:10;;;;;;;4.63;1.02;;;3.10;99.90;;;;;;5024430;28;20443;-61
2023/11/26 01:02:36;;;;;;;1.63;0.93;;;3.00;99.90;;;;;;5014040;28;20443;-61
2023/11/26 01:05:03;;;;;;;2.38;1.00;;;3.00;99.90;;;;;;4997795;28;20124;-61
2023/11/26 01:07:33;;;;;;;3.75;0.95;;;3.00;99.90;;;;;;5009201;28;20060;-61
2023/11/26 01:09:59;;;;;;;6.90;1.20;;;3.10;99.90;;;;;;5021328;28;20042;-61
2023/11/26 01:12:25;;;;;;;7.13;0.88;;;3.00;99.90;;;;;;5021955;28;20049;-61
2023/11/26 01:14:51;;;;;;;1.65;0.90;;;3.00;99.90;;;;;;5019459;28;20409;-61
2023/11/26 01:17:17;;;;;;;4.82;1.00;;;3.00;99.90;;;;;;5027288;28;20083;-61
2023/11/26 01:19:43;;;;;;;3.03;0.82;;;3.10;99.90;;;;;;5027688;28;20092;-61
2023/11/26 01:22:10;;;;;;;3.75;1.25;;;3.10;99.90;;;;;;5000867;28;20053;-61
2023/11/26 01:24:35;;;;;;;0.90;0.80;;;3.10;99.90;;;;;;5027455;28;20828;-61
2023/11/26 01:27:03;;;;;;;4.78;1.10;;;3.10;99.90;;;;;;5025917;28;20064;-61
2023/11/26 01:29:29;;;;;;;1.33;0.88;;;3.10;99.90;;;;;;5027743;28;20045;-61
2023/11/26 01:31:55;;;;;;;3.00;0.90;;;3.10;99.90;;;;;;5025486;28;20049;-61
2023/11/26 01:34:21;;;;;;;5.22;1.00;;;3.10;99.90;;;;;;5027318;28;20575;-61
2023/11/26 01:36:47;;;;;;;2.95;0.80;;;3.20;99.90;;;;;;5023234;28;20053;-61
2023/11/26 01:39:13;;;;;;;3.00;0.93;;;3.10;99.90;;;;;;5012445;28;20045;-61
2023/11/26 01:41:38;;;;;;;2.05;0.57;;;3.20;99.90;;;;;;5007977;28;20085;-61
2023/11/26 01:44:04;;;;;;;5.22;0.65;;;3.30;99.90;;;;;;5025659;28;20042;-61
2023/11/26 01:46:31;;;;;;;2.67;0.80;;;3.20;99.90;;;;;;5027727;28;20145;-61
2023/11/26 01:48:58;;;;;;;5.63;1.38;;;3.40;99.90;;;;;;5025446;28;20053;-61
2023/11/26 01:51:27;;;;;;;4.35;0.60;;;3.30;99.90;;;;;;5009815;28;20054;-61
2023/11/26 01:53:55;;;;;;;2.30;0.60;;;3.30;99.90;;;;;;5014417;28;20127;-61
2023/11/26 01:56:22;;;;;;;6.03;0.73;;;3.40;99.90;;;;;;5006530;28;20419;-61
2023/11/26 01:58:48;;;;;;;2.65;0.63;;;3.40;99.90;;;;;;5027253;28;20038;-61
2023/11/26 02:01:18;;;;;;;1.60;0.60;;;3.40;99.90;;;;;;5024928;28;20052;-61
2023/11/26 02:03:43;;;;;;;1.90;0.70;;;3.50;99.90;;;;;;5026549;28;20037;-61
2023/11/26 02:06:10;;;;;;;0.60;0.40;;;3.50;99.90;;;;;;5007538;28;20602;-61
2023/11/26 02:08:36;;;;;;;4.60;0.68;;;3.50;99.90;;;;;;5014637;28;20041;-61
2023/11/26 02:11:03;;;;;;;1.55;0.57;;;3.40;99.90;;;;;;5025878;28;20111;-61
2023/11/26 02:13:29;;;;;;;2.35;0.50;;;3.50;99.90;;;;;;5026228;28;20129;-61
2023/11/26 02:15:55;;;;;;;1.95;0.47;;;3.50;99.90;;;;;;5009121;28;20136;-61
2023/11/26 02:18:21;;;;;;;0.40;0.35;;;3.60;99.90;;;;;;5026919;28;20040;-61
2023/11/26 02:20:47;;;;;;;4.63;0.60;;;3.50;99.90;;;;;;5030554;28;20045;-61
2023/11/26 02:23:13;;;;;;;0.55;0.28;;;3.60;99.90;;;;;;5011104;28;20136;-61
2023/11/26 02:25:39;;;;;;;2.28;0.40;;;3.60;99.90;;;;;;5006927;28;20041;-61
2023/11/26 02:28:08;;;;;;;0.40;0.40;;;3.60;99.90;;;;;;4995352;28;20052;-62
2023/11/26 02:30:34;;;;;;;2.72;0.77;;;3.60;99.90;;;;;;5018954;28;20057;-61
2023/11/26 02:33:00;;;;;;;2.83;0.43;;;3.70;99.90;;;;;;5012578;28;20045;-62
2023/11/26 02:35:27;;;;;;;1.95;0.40;;;3.60;99.90;;;;;;5025033;28;20091;-61
2023/11/26 02:37:55;;;;;;;2.17;0.52;;;3.60;99.90;;;;;;5030782;28;20045;-61
2023/11/26 02:40:22;;;;;;;1.23;0.70;;;3.60;99.90;;;;;;5029170;28;20045;-61
2023/11/26 02:42:47;;;;;;;2.25;0.50;;;3.70;99.90;;;;;;5012535;28;20128;-61
2023/11/26 02:45:13;;;;;;;2.47;0.80;;;3.80;99.90;;;;;;5009829;28;20137;-61
2023/11/26 02:47:39;;;;;;;2.97;1.42;;;3.70;99.90;;;;;;5029635;28;20127;-61
2023/11/26 02:50:07;;;;;;;5.43;1.90;;;3.70;99.90;;;;;;5012111;28;20045;-61
2023/11/26 02:52:34;;;;;;;3.03;1.73;;;3.80;99.90;;;;;;5010828;28;20052;-61
2023/11/26 02:55:00;;;;;;;6.53;1.80;;;3.70;99.90;;;;;;5029519;28;20049;-61
2023/11/26 02:57:26;;;;;;;1.75;1.45;;;3.70;99.90;;;;;;5009867;28;20041;-62
2023/11/26 02:59:52;;;;;;;9.35;2.00;;;3.70;99.90;;;;;;5030047;28;20041;-61
2023/11/26 03:02:19;;;;;;;4.88;1.88;;;3.60;99.90;;;;;;5010196;28;20072;-61
2023/11/26 03:04:51;;;;;;;2.38;0.80;;;3.50;99.90;;;;;;5029792;28;20046;-62
2023/11/26 03:07:20;;;;;;;1.90;0.88;;;3.60;99.90;;;;;;5029288;28;20045;-61
2023/11/26 03:15:16;;;;;;;2.25;1.02;;;3.40;99.90;;;;;;5028352;28;20554;-61
2023/11/26 03:17:41;;;;;;;5.15;1.00;;;3.40;99.90;;;;;;5029512;28;20095;-61
2023/11/26 03:20:08;;;;;;;4.55;1.27;;;3.40;99.90;;;;;;5021463;28;20091;-61
2023/11/26 03:22:36;;;;;;;3.90;0.77;;;3.30;99.90;;;;;;5028611;28;20061;-61
2023/11/26 03:25:05;;;;;;;2.95;0.90;;;3.30;99.90;;;;;;5029450;28;20419;-61
2023/11/26 03:27:33;;;;;;;5.38;1.10;;;3.30;99.90;;;;;;5009960;28;20049;-61
2023/11/26 03:30:00;;;;;;;1.38;0.60;;;3.20;99.90;;;;;;5024092;28;20065;-61
2023/11/26 03:32:27;;;;;;;2.50;0.80;;;3.20;99.90;;;;;;5027664;28;20092;-61
2023/11/26 03:34:53;;;;;;;2.90;1.30;;;3.20;99.90;;;;;;5029318;28;20049;-61
2023/11/26 03:37:19;;;;;;;2.30;0.80;;;3.20;99.90;;;;;;5011023;28;20041;-61
2023/11/26 03:39:45;;;;;;;2.30;0.73;;;3.20;99.90;;;;;;5008042;28;20102;-61
2023/11/26 03:42:14;;;;;;;5.07;0.82;;;3.20;99.90;;;;;;5028725;28;20694;-61
2023/11/26 03:44:40;;;;;;;1.65;0.63;;;3.20;99.90;;;;;;5027816;28;20057;-62
2023/11/26 03:47:08;;;;;;;2.45;0.85;;;3.20;99.90;;;;;;5011256;28;20110;-61
2023/11/26 03:49:34;;;;;;;2.65;0.70;;;3.20;99.90;;;;;;5027070;28;20053;-61
2023/11/26 03:52:00;;;;;;;3.38;0.75;;;3.20;99.90;;;;;;5029205;28;20207;-61
2023/11/26 03:54:25;;;;;;;3.10;0.77;;;3.20;99.90;;;;;;5010389;28;20544;-61
2023/11/26 03:56:51;;;;;;;2.15;0.65;;;3.10;99.90;;;;;;5010257;28;20045;-61
2023/11/26 03:59:17;;;;;;;4.90;1.00;;;3.20;99.90;;;;;;5028948;28;20140;-61
2023/11/26 04:01:43;;;;;;;0.73;0.60;;;3.10;99.90;;;;;;5021545;28;20049;-61
2023/11/26 04:04:09;;;;;;;1.27;0.80;;;3.20;99.90;;;;;;5028888;28;20049;-61
2023/11/26 04:06:37;;;;;;;3.85;0.90;;;3.20;99.90;;;;;;5027450;28;20546;-61
2023/11/26 04:09:03;;;;;;;0.93;0.77;;;3.20;99.90;;;;;;5029153;28;20041;-61
2023/11/26 04:11:29;;;;;;;5.50;0.68;;;3.10;99.90;;;;;;5009624;28;20549;-61
2023/11/26 04:13:55;;;;;;;0.70;0.70;;;3.30;99.90;;;;;;5028285;28;20128;-61
2023/11/26 04:16:21;;;;;;;2.22;0.88;;;3.20;99.90;;;;;;5028444;28;20041;-61
2023/11/26 04:18:47;;;;;;;6.25;1.02;;;3.20;99.90;;;;;;5009542;28;20048;-61
2023/11/26 04:21:13;;;;;;;2.42;0.73;;;3.20;99.90;;;;;;5027278;28;20377;-61
2023/11/26 04:23:39;;;;;;;3.13;1.08;;;3.30;99.90;;;;;;5024723;28;20124;-61
2023/11/26 04:26:06;;;;;;;2.78;0.93;;;3.20;99.90;;;;;;5028754;28;20076;-62
2023/11/26 04:28:32;;;;;;;4.38;0.85;;;3.30;99.90;;;;;;5026968;28;20506;-61
2023/11/26 04:30:58;;;;;;;2.20;0.95;;;3.40;99.90;;;;;;5027871;28;20078;-65
2023/11/26 04:33:25;;;;;;;1.80;0.88;;;3.30;99.90;;;;;;5020199;28;20064;-61
2023/11/26 04:35:51;;;;;;;3.15;0.90;;;3.40;99.90;;;;;;5027088;28;20080;-61
2023/11/26 04:38:17;;;;;;;4.43;0.98;;;3.40;99.90;;;;;;5027748;28;20053;-61
2023/11/26 04:40:42;;;;;;;4.05;0.90;;;3.40;99.90;;;;;;5026336;28;20456;-61
2023/11/26 04:43:08;;;;;;;1.58;0.85;;;3.40;99.90;;;;;;5025217;28;20046;-61
2023/11/26 04:45:34;;;;;;;3.60;1.00;;;3.40;99.90;;;;;;5026409;28;20060;-61
2023/11/26 04:47:59;;;;;;;2.90;0.95;;;3.40;99.90;;;;;;5027713;28;20190;-61
2023/11/26 04:50:25;;;;;;;3.42;1.00;;;3.40;99.90;;;;;;5009413;28;20049;-61
2023/11/26 04:52:51;;;;;;;6.28;1.00;;;3.50;99.90;;;;;;4992844;28;20136;-61
2023/11/26 04:55:19;;;;;;;7.78;1.05;;;3.50;99.90;;;;;;5026573;28;20052;-61
2023/11/26 04:57:49;;;;;;;2.30;0.82;;;3.40;99.90;;;;;;5026280;28;20049;-61
2023/11/26 05:00:17;;;;;;;1.63;0.77;;;3.50;99.90;;;;;;5009778;28;20054;-61
2023/11/26 05:02:43;;;;;;;3.85;0.77;;;3.60;99.90;;;;;;5025925;28;20272;-61
2023/11/26 05:05:10;;;;;;;5.13;0.88;;;3.60;99.90;;;;;;5017160;28;20053;-61
2023/11/26 05:07:39;;;;;;;6.93;1.30;;;3.50;99.90;;;;;;5026635;28;20483;-61
2023/11/26 05:10:09;;;;;;;5.30;1.52;;;3.40;99.90;;;;;;5009105;28;20081;-61
2023/11/26 05:12:35;;;;;;;5.47;1.05;;;3.50;99.90;;;;;;5009965;28;20053;-61
2023/11/26 05:15:01;;;;;;;1.48;0.85;;;3.50;99.90;;;;;;5022285;28;20132;-61
2023/11/26 05:17:28;;;;;;;2.47;0.85;;;3.50;99.90;;;;;;5025641;28;20080;-61
2023/11/26 05:19:54;;;;;;;1.90;0.80;;;3.50;99.90;;;;;;5006250;28;20111;-61
2023/11/26 05:22:20;;;;;;;2.58;0.88;;;3.40;99.90;;;;;;5005192;28;20058;-61
2023/11/26 05:24:46;;;;;;;3.30;0.80;;;3.40;99.90;;;;;;5026545;28;20049;-61
2023/11/26 05:27:12;;;;;;;4.93;0.82;;;3.40;99.90;;;;;;5027302;28;20072;-61
2023/11/26 05:29:38;;;;;;;3.22;0.88;;;3.40;99.90;;;;;;5009440;28;20103;-61
2023/11/26 05:32:04;;;;;;;5.10;0.95;;;3.40;99.90;;;;;;5025503;28;20040;-61
2023/11/26 05:34:30;;;;;;;3.17;0.90;;;3.40;99.90;;;;;;5005858;28;20053;-61
2023/11/26 05:36:56;;;;;;;5.28;0.80;;;3.40;99.90;;;;;;5026259;28;20053;-61
2023/11/26 05:39:22;;;;;;;2.33;0.70;;;3.30;99.90;;;;;;5027417;28;20046;-61
2023/11/26 05:41:48;;;;;;;3.85;0.68;;;3.50;99.90;;;;;;5008524;28;20065;-61
2023/11/26 05:44:14;;;;;;;3.67;0.75;;;3.40;99.90;;;;;;5026242;28;20092;-61
2023/11/26 05:46:45;;;;;;;2.20;0.73;;;3.50;99.90;;;;;;5026885;28;20183;-61
2023/11/26 05:49:12;;;;;;;2.88;0.82;;;3.50;99.90;;;;;;5025773;28;20061;-61
2023/11/26 05:51:37;;;;;;;6.13;0.88;;;3.60;99.90;;;;;;5026959;28;20057;-61
2023/11/26 05:54:03;;;;;;;2.45;0.80;;;3.70;99.90;;;;;;5024360;28;20050;-61
2023/11/26 05:56:29;;;;;;;3.90;0.93;;;3.60;99.90;;;;;;5009102;28;20060;-61
2023/11/26 05:58:55;;;;;;;1.75;0.60;;;3.60;99.90;;;;;;5029921;28;20068;-61
2023/11/26 06:01:25;;;;;;;8.40;0.95;;;3.50;99.90;;;;;;5030394;28;20053;-61
2023/11/26 06:03:51;;;;;;;2.28;0.60;;;3.50;99.90;;;;;;5012502;28;20077;-61
2023/11/26 06:06:17;;;;;;;8.57;0.90;;;3.60;99.90;;;;;;5026640;28;20120;-61
2023/11/26 06:08:43;;;;;;;3.10;0.90;;;3.60;99.90;;;;;;5013221;28;20590;-61
2023/11/26 06:11:09;;;;;;;2.00;0.68;;;3.50;99.90;;;;;;4995538;28;20045;-61
2023/11/26 06:13:35;;;;;;;4.15;1.48;;;3.50;99.90;;;;;;5030847;28;20076;-61
2023/11/26 06:16:00;;;;;;;3.83;0.85;;;3.50;99.90;;;;;;5019714;28;20064;-61
2023/11/26 06:18:26;;;;;;;6.45;0.98;;;3.60;99.90;;;;;;5021674;28;20484;-61
2023/11/26 06:20:52;;;;;;;1.45;0.80;;;3.50;99.90;;;;;;5030461;28;20041;-61
2023/11/26 06:23:17;;;;;;;1.77;0.63;;;3.50;99.90;;;;;;5030193;28;20046;-61
2023/11/26 06:25:43;;;;;;;2.33;0.80;;;3.60;99.90;;;;;;5024320;28;20243;-61
2023/11/26 06:28:10;;;;;;;4.00;1.20;;;3.60;99.90;;;;;;5028677;28;20381;-61
2023/11/26 06:30:36;;;;;;;5.93;0.95;;;3.60;99.90;;;;;;5030354;28;20068;-61
2023/11/26 06:33:03;;;;;;;3.40;0.90;;;3.60;99.90;;;;;;5010696;28;20554;-61
2023/11/26 06:35:29;;;;;;;3.90;0.80;;;3.60;99.90;;;;;;5030066;28;20050;-61
2023/11/26 06:37:54;;;;;;;9.75;1.33;;;3.60;99.90;;;;;;5026229;28;20045;-61
2023/11/26 06:40:21;;;;;;;2.63;1.20;;;3.60;99.90;;;;;;5029978;28;20029;-61
2023/11/26 06:42:46;;;;;;;5.15;1.00;;;3.60;99.90;;;;;;5030107;28;20111;-61
2023/11/26 06:45:12;;;;;;;7.53;0.73;;;3.60;99.90;;;;;;5029005;28;20049;-61
2023/11/26 06:47:38;;;;;;;6.05;0.82;;;3.60;99.90;;;;;;5021231;28;20497;-61
2023/11/26 06:50:05;;;;;;;0.88;0.70;;;3.50;99.90;;;;;;5008985;28;20580;-61
2023/11/26 06:52:33;;;;;;;5.78;0.82;;;3.50;99.90;;;;;;5012573;28;20046;-61
2023/11/26 06:54:59;;;;;;;5.88;0.85;;;3.60;99.90;;;;;;5011452;28;20128;-61
2023/11/26 06:57:25;;;;;;;7.43;0.63;;;3.60;99.90;;;;;;5025815;28;20134;-61
2023/11/26 06:59:51;;;;;;;2.55;0.75;;;3.60;99.90;;;;;;5023917;28;20060;-61
2023/11/26 07:02:16;;;;;;;3.03;1.02;;;3.60;99.90;;;;;;5028419;28;20483;-61
2023/11/26 07:04:42;;;;;;;2.90;1.08;;;3.60;99.90;;;;;;5029784;28;20049;-61
2023/11/26 07:07:08;;;;;;;3.40;0.57;;;3.70;99.90;;;;;;5028189;28;20089;-61
2023/11/26 07:09:34;;;;;;;15.23;1.30;;;3.90;99.90;;;;;;5028807;28;20069;-61
2023/11/26 07:12:00;;;;;;;10.38;0.80;;;3.90;99.90;;;;;;5028589;28;20046;-61
2023/11/26 07:14:25;;;;;;;5.57;0.80;;;4.00;99.90;;;;;;5011927;28;20049;-61
2023/11/26 07:16:54;;;;;;;6.95;0.43;;;4.00;99.90;;;;;;5028890;28;20053;-61
2023/11/26 07:19:20;;;;;;;4.30;0.60;;;3.90;99.90;;;;;;5002618;28;20100;-61
2023/11/26 07:21:46;;;;;;;6.88;0.88;;;4.00;99.90;;;;;;5029446;28;20103;-61
2023/11/26 07:24:12;;;;;;;1.42;0.60;;;4.00;99.90;;;;;;5027999;28;20045;-61
2023/11/26 07:26:37;;;;;;;3.45;0.73;;;4.00;99.90;;;;;;5029333;28;20491;-61
2023/11/26 07:29:03;;;;;;;5.50;0.82;;;4.00;99.90;;;;;;5009468;28;20081;-61
2023/11/26 07:31:29;;;;;;;6.18;1.17;;;4.10;99.90;;;;;;5011116;28;20049;-61
2023/11/26 07:33:56;;;;;;;7.32;0.70;;;4.10;99.90;;;;;;5028290;28;20049;-61
2023/11/26 07:36:24;;;;;;;6.53;0.98;;;4.10;99.90;;;;;;5028659;28;20053;-61
2023/11/26 07:38:52;;;;;;;5.32;0.85;;;4.20;99.90;;;;;;5011250;28;20132;-61
2023/11/26 07:41:18;;;;;;;3.05;1.17;;;4.20;99.90;;;;;;5022425;28;20551;-61
2023/11/26 07:43:44;;;;;;;4.90;0.70;;;4.20;99.90;;;;;;5029269;28;20042;-61
2023/11/26 07:46:12;;;;;;;3.15;0.75;;;4.20;99.90;;;;;;5027566;28;20053;-61
2023/11/26 07:48:38;;;;;;;9.23;1.05;;;4.30;99.90;;;;;;5028612;28;20045;-61
2023/11/26 07:51:05;;;;;;;6.60;1.10;;;4.30;99.90;;;;;;5026617;28;20411;-61
2023/11/26 07:53:32;;;;;;;5.63;0.60;;;4.30;99.90;;;;;;5025821;28;20048;-61
2023/11/26 07:55:58;;;;;;;6.13;0.65;;;4.30;99.90;;;;;;5004548;28;20069;-61
2023/11/26 07:58:25;;;;;;;4.22;0.50;;;4.40;99.90;;;;;;5005975;28;20045;-61
2023/11/26 08:00:51;;;;;;;9.60;0.63;;;4.40;99.90;;;;;;5008636;28;20061;-61
2023/11/26 08:03:17;;;;;;;4.57;0.70;;;4.40;99.90;;;;;;5002232;28;20103;-61
2023/11/26 08:05:43;;;;;;;6.40;0.85;;;4.60;99.90;;;;;;5033551;28;20091;-61
2023/11/26 08:08:10;;;;;;;2.42;0.40;;;4.50;99.90;;;;;;5034813;28;20132;-61
2023/11/26 08:10:37;;;;;;;1.25;0.30;;;4.50;99.90;;;;;;5026809;28;20390;-61
2023/11/26 08:13:03;;;;;;;2.20;0.60;;;4.60;99.90;;;;;;5020137;28;20057;-61
2023/11/26 08:15:28;;;;;;;4.63;0.50;;;4.60;99.90;;;;;;5023541;28;20128;-61
2023/11/26 08:17:55;;;;;;;6.50;0.77;;;4.60;99.90;;;;;;5026091;28;20129;-61
2023/11/26 08:20:24;;;;;;;1.70;0.50;;;4.60;99.90;;;;;;5027111;28;20052;-61
2023/11/26 08:22:51;;;;;;;1.75;0.50;;;4.60;99.90;;;;;;5010770;28;20113;-61
2023/11/26 08:25:23;;;;;;;5.53;0.73;;;4.70;99.90;;;;;;5026152;28;20088;-61
2023/11/26 08:27:51;;;;;;;8.27;0.90;;;4.70;99.90;;;;;;5013763;28;20049;-61
2023/11/26 08:30:32;;;;;;;7.68;0.63;;;4.70;99.90;;;;;;5010511;28;20124;-61
2023/11/26 08:33:05;;;;;;;6.18;1.15;;;4.80;99.90;;;;;;4998686;28;20059;-61
2023/11/26 08:35:32;;;;;;;2.47;0.47;;;4.80;99.90;;;;;;5028708;28;20115;-61
2023/11/26 08:38:00;;;;;;;1.88;0.43;;;4.90;99.90;;;;;;5025820;28;20044;-61
2023/11/26 08:40:26;;;;;;;4.10;0.65;;;5.00;99.90;;;;;;5029590;28;20054;-61
2023/11/26 08:42:55;;;;;;;4.25;0.50;;;5.00;99.90;;;;;;5037993;28;20056;-61
2023/11/26 08:45:22;;;;;;;5.28;0.68;;;5.10;99.90;;;;;;5009436;28;20116;-61
2023/11/26 08:47:48;;;;;;;9.43;1.20;;;5.10;99.90;;;;;;5027962;28;20377;-61
2023/11/26 08:50:14;;;;;;;6.65;1.02;;;5.10;99.90;;;;;;5008679;28;20160;-61
2023/11/26 08:52:39;;;;;;;6.57;0.95;;;5.10;99.90;;;;;;5036258;28;20403;-61
2023/11/26 08:55:06;;;;;;;8.30;0.90;;;5.10;99.90;;;;;;5020962;28;20387;-61
2023/11/26 08:57:32;;;;;;;3.88;1.00;;;5.20;99.90;;;;;;5041289;28;20052;-61
2023/11/26 08:59:58;;;;;;;6.80;0.73;;;5.20;99.90;;;;;;5043769;28;20179;-61
2023/11/26 09:02:27;;;;;;;4.85;0.73;;;5.20;99.90;;;;;;5037662;28;20057;-61
2023/11/26 09:04:52;;;;;;;5.15;1.02;;;5.40;99.90;;;;;;5036040;28;20136;-61
2023/11/26 09:07:19;;;;;;;8.38;0.70;;;5.40;99.90;;;;;;5031123;28;20128;-61
2023/11/26 09:09:45;;;;;;;3.40;0.75;;;5.40;99.90;;;;;;5033400;28;20147;-61
2023/11/26 09:12:10;;;;;;;3.85;0.60;;;5.50;99.90;;;;;;4992876;28;20087;-61
2023/11/26 09:14:36;;;;;;;2.90;0.60;;;5.50;99.90;;;;;;5023255;28;20045;-61
2023/11/26 09:17:05;;;;;;;8.23;0.82;;;5.50;99.90;;;;;;4999566;28;20061;-61
2023/11/26 09:19:31;;;;;;;3.88;0.98;;;5.50;99.90;;;;;;5030524;28;20565;-61
2023/11/26 09:22:01;;;;;;;1.33;0.60;;;5.50;99.90;;;;;;5029697;28;20046;-61
2023/11/26 09:24:28;;;;;;;;;;;5.60;99.90;;;;;;5024257;28;20041;-61
2023/11/26 09:26:54;;;;;;;7.45;0.82;;;5.60;99.90;;;;;;5033153;28;20012;-61
2023/11/26 09:29:20;;;;;;;2.55;0.60;;;5.60;99.90;;;;;;5025207;28;20141;-61
2023/11/26 09:31:46;;;;;;;5.07;0.90;;;5.60;99.90;;;;;;5036438;28;20041;-61
2023/11/26 09:34:12;;;;;;;6.07;0.70;;;5.70;99.90;;;;;;5029069;28;20068;-61
2023/11/26 09:36:41;;;;;;;10.30;0.80;;;5.70;99.90;;;;;;5031555;28;20046;-61
2023/11/26 09:39:07;;;;;;;5.65;0.77;;;5.80;99.90;;;;;;5031631;28;20049;-61
2023/11/26 09:41:33;;;;;;;5.20;0.82;;;5.70;99.90;;;;;;5018657;28;20053;-61
2023/11/26 09:43:59;;;;;;;9.35;1.10;;;5.80;99.90;;;;;;5035880;28;20041;-61
2023/11/26 09:46:29;;;;;;;6.47;0.80;;;5.80;99.90;;;;;;5045085;28;20044;-61
2023/11/26 09:48:55;;;;;;;4.82;1.42;;;5.90;99.90;;;;;;5042305;28;20049;-61
2023/11/26 09:51:23;;;;;;;5.13;0.80;;;5.90;99.90;;;;;;5027967;28;20060;-61
2023/11/26 09:53:51;;;;;;;6.13;1.27;;;5.90;99.90;;;;;;5031315;28;20525;-61
2023/11/26 09:56:17;;;;;;;10.30;1.65;;;6.00;99.90;;;;;;5012221;28;20136;-61
2023/11/26 09:58:43;;;;;;;6.10;1.88;;;6.00;99.90;;;;;;5004274;28;20412;-61
2023/11/26 10:01:10;;;;;;;6.47;2.00;;;6.00;99.90;;;;;;5028404;28;20052;-61
2023/11/26 10:03:56;;;;;;;11.00;2.10;;;6.00;99.90;;;;;;5008769;28;20055;-61
2023/11/26 10:06:22;;;;;;;14.80;1.52;;;6.00;99.90;;;;;;5030151;28;20045;-62
2023/11/26 10:08:48;;;;;;;3.08;1.33;;;6.00;99.90;;;;;;5010359;28;20117;-62
2023/11/26 10:11:22;;;;;;;13.93;1.85;;;6.00;99.90;;;;;;5020347;28;20143;-62
2023/11/26 10:13:48;;;;;;;9.93;1.58;;;6.10;99.90;;;;;;5036282;28;20057;-62
2023/11/26 10:16:28;;;;;;;10.32;2.10;;;6.10;99.90;;;;;;5028754;28;20069;-62
2023/11/26 10:18:54;;;;;;;13.40;1.50;;;6.10;99.90;;;;;;5012199;28;20419;-62
2023/11/26 10:21:20;;;;;;;12.32;2.28;;;6.20;99.90;;;;;;5028905;28;20468;-62
2023/11/26 10:23:46;;;;;;;10.93;1.27;;;6.20;99.90;;;;;;5031744;28;20120;-62
2023/11/26 10:26:26;;;;;;;1.85;0.60;;;6.30;99.90;;;;;;5034002;28;20042;-62
2023/11/26 10:29:08;;;;;;;1.80;0.82;;;6.30;99.90;;;;;;5035259;28;20041;-62
2023/11/26 10:31:39;;;;;;;11.88;1.38;;;6.30;99.90;;;;;;5024305;28;20609;-62
2023/11/26 10:34:13;;;;;;;6.38;1.17;;;6.30;99.90;;;;;;4993774;28;20045;-62
2023/11/26 10:36:39;;;;;;;3.72;0.95;;;6.40;99.90;;;;;;5029980;28;20377;-61
2023/11/26 10:39:09;;;;;;;0.08;0.08;;;6.40;99.90;;;;;;5028487;28;20088;-65
2023/11/26 10:41:36;;;;;;;2.15;0.65;;;6.40;99.90;;;;;;5029066;28;20064;-63
2023/11/26 10:44:03;;;;;;;0.93;0.50;;;6.30;99.90;;;;;;5030316;28;20057;-63
2023/11/26 10:46:33;;;;;;;8.43;0.85;;;6.40;99.90;;;;;;5024060;28;20041;-63
2023/11/26 10:49:14;;;;;;;0.75;0.45;;;6.40;99.90;;;;;;5008944;28;20041;-63
2023/11/26 10:51:48;;;;;;;5.88;0.95;;;6.50;99.90;;;;;;5023867;28;20049;-63
2023/11/26 10:54:24;;;;;;;9.00;1.65;;;6.40;99.90;;;;;;5019884;28;20041;-63
2023/11/26 10:56:55;;;;;;;0.20;0.15;;;6.50;99.90;;;;;;4989374;28;20072;-63
2023/11/26 10:59:22;;;;;;;0.22;0.22;;;6.50;99.90;;;;;;5018196;28;20083;-63
2023/11/26 11:01:48;;;;;;;4.20;0.68;;;6.60;99.90;;;;;;5007970;28;20129;-63
2023/11/26 11:04:15;;;;;;;0.60;0.50;;;6.60;99.90;;;;;;5013444;28;20442;-63
2023/11/26 11:06:43;;;;;;;2.92;0.30;;;6.60;99.90;;;;;;5020987;28;20084;-63
2023/11/26 11:09:13;;;;;;;2.47;0.47;;;6.60;99.90;;;;;;5038788;28;20080;-62
2023/11/26 11:11:55;;;;;;;3.60;0.80;;;6.60;99.90;;;;;;5020078;28;20451;-63
2023/11/26 11:14:22;;;;;;;5.00;0.77;;;6.60;99.90;;;;;;5027676;28;20049;-63
2023/11/26 11:16:49;;;;;;;7.32;1.20;;;6.60;99.90;;;;;;5017059;28;20057;-63
2023/11/26 11:19:47;;;;;;;1.85;0.47;;;6.60;99.90;;;;;;5022223;28;20056;-63
2023/11/26 11:22:13;;;;;;;2.20;0.77;;;6.60;99.90;;;;;;5022638;28;20045;-63
2023/11/26 11:24:39;;;;;;;4.65;0.93;;;6.60;99.90;;;;;;5040036;28;20549;-63
2023/11/26 11:27:05;;;;;;;4.45;0.80;;;6.60;99.90;;;;;;5028896;28;20076;-63
2023/11/26 11:29:31;;;;;;;5.55;0.90;;;6.60;99.90;;;;;;5018694;28;20066;-63
2023/11/26 11:32:01;;;;;;;2.35;0.40;;;6.60;99.90;;;;;;5036064;28;20818;-64
2023/11/26 11:34:28;;;;;;;1.95;0.50;;;6.50;99.90;;;;;;5022204;28;20046;-63
2023/11/26 11:36:55;;;;;;;2.72;0.63;;;6.60;99.90;;;;;;5027993;28;20052;-63
2023/11/26 11:39:41;;;;;;;0.82;0.43;;;6.60;99.90;;;;;;5030475;28;20049;-63
2023/11/26 11:42:13;;;;;;;3.72;0.55;;;6.60;99.90;;;;;;5024063;28;20053;-63
2023/11/26 11:44:42;;;;;;;0.30;0.22;;;6.60;99.90;;;;;;5013855;28;20053;-63
2023/11/26 11:47:15;;;;;;;1.75;0.38;;;6.60;99.90;;;;;;5009217;28;20046;-63
2023/11/26 11:49:49;;;;;;;3.05;0.52;;;6.50;99.90;;;;;;5030562;28;20079;-63
2023/11/26 11:52:16;;;;;;;1.55;0.30;;;6.60;99.90;;;;;;5030143;28;20407;-63
2023/11/26 11:54:57;;;;;;;2.45;0.52;;;6.60;99.90;;;;;;5010025;28;20128;-63
2023/11/26 11:57:25;;;;;;;5.55;0.93;;;6.50;99.90;;;;;;5017055;28;20121;-63
2023/11/26 11:59:51;;;;;;;7.35;0.57;;;6.50;99.90;;;;;;5009253;28;20042;-63
2023/11/26 12:02:19;;;;;;;3.47;0.40;;;6.60;99.90;;;;;;5028220;28;20091;-63
2023/11/26 12:04:49;;;;;;;4.03;0.65;;;6.60;99.90;;;;;;5013017;28;20156;-63
2023/11/26 12:07:29;;;;;;;3.55;0.82;;;6.60;99.90;;;;;;5039712;28;20037;-63
2023/11/26 12:09:54;;;;;;;1.25;0.35;;;6.60;99.90;;;;;;5035178;28;20053;-63
2023/11/26 12:12:20;;;;;;;4.72;0.35;;;6.60;99.90;;;;;;5008699;28;20056;-63
2023/11/26 12:14:46;;;;;;;4.38;0.57;;;6.60;99.90;;;;;;5028606;28;20037;-63
2023/11/26 12:17:12;;;;;;;5.45;1.00;;;6.60;99.90;;;;;;5033516;28;20041;-63
2023/11/26 12:19:43;;;;;;;4.30;0.93;;;6.70;99.90;;;;;;5042725;28;20048;-63
2023/11/26 12:22:10;;;;;;;5.68;0.80;;;6.70;99.90;;;;;;5038756;28;20586;-63
2023/11/26 12:24:37;;;;;;;2.28;0.63;;;6.70;99.90;;;;;;5045061;28;20072;-63
2023/11/26 12:27:04;;;;;;;4.53;0.77;;;6.70;99.90;;;;;;5043048;28;20052;-63
2023/11/26 12:29:35;;;;;;;3.50;0.40;;;6.80;99.90;;;;;;5030358;28;20037;-63
2023/11/26 12:32:05;;;;;;;2.92;0.47;;;6.70;99.90;;;;;;5028213;28;20073;-63
2023/11/26 12:34:39;;;;;;;5.47;0.70;;;6.70;99.90;;;;;;5024002;28;20044;-63
2023/11/26 12:37:08;;;;;;;5.47;0.88;;;6.70;99.90;;;;;;5004787;28;20060;-63
2023/11/26 12:39:35;;;;;;;6.07;1.00;;;6.60;99.90;;;;;;5026251;28;20537;-63
2023/11/26 12:42:01;;;;;;;2.47;0.52;;;6.70;99.90;;;;;;5027486;28;20140;-63
2023/11/26 12:44:27;;;;;;;4.07;0.85;;;6.70;99.90;;;;;;5006353;28;20045;-63
2023/11/26 12:47:14;;;;;;;8.38;1.15;;;6.70;99.90;;;;;;5025932;28;20052;-64
2023/11/26 12:49:40;;;;;;;3.63;0.45;;;6.60;99.90;;;;;;5020451;28;20099;-63
2023/11/26 12:52:10;;;;;;;6.90;1.35;;;6.60;99.90;;;;;;5026990;28;20411;-64
2023/11/26 12:54:36;;;;;;;2.83;1.17;;;6.60;99.90;;;;;;5004385;28;20080;-64
2023/11/26 12:57:04;;;;;;;8.00;0.50;;;6.60;99.90;;;;;;5027169;28;20451;-64
2023/11/26 12:59:47;;;;;;;4.63;1.00;;;6.60;99.90;;;;;;4994862;28;20112;-64
2023/11/26 13:02:14;;;;;;;4.97;0.80;;;6.70;99.90;;;;;;5027197;28;20119;-64
2023/11/26 13:04:40;;;;;;;2.05;0.47;;;6.70;99.90;;;;;;5019473;28;20080;-64